Time,TemperatureF,DewpointF,PressureIn,WindDirection,WindDirectionDegrees,WindSpeedMPH,WindSpeedGustMPH,Humidity,HourlyPrecipIn,Conditions,Clouds,dailyrainin,SoftwareType,DateUTC
2013-05-18 00:01:00,77.1,72.0,30.14,East,86,5.0,11.0,85,0.00,,,0.00,weatherlink.com 1.10,2013-05-18 04:01:00,
2013-05-18 00:16:00,76.9,71.0,30.14,SSE,150,5.0,10.0,83,0.00,,,0.00,weatherlink.com 1.10,2013-05-18 04:16:00,
2013-05-18 00:31:00,76.4,71.0,30.14,SE,134,3.0,6.0,82,0.00,,,0.00,weatherlink.com 1.10,2013-05-18 04:31:00,
2013-05-18 00:46:00,75.9,71.0,30.14,SW,224,0.0,4.0,84,0.00,,,0.00,weatherlink.com 1.10,2013-05-18 04:46:00,
2013-05-18 01:01:00,75.6,71.0,30.14,SE,145,0.0,3.0,85,0.00,,,0.00,weatherlink.com 1.10,2013-05-18 05:01:00,
2013-05-18 01:16:00,75.7,71.0,30.14,East,85,6.0,14.0,86,0.00,,,0.00,weatherlink.com 1.10,2013-05-18 05:16:00,
2013-05-18 01:31:00,76.1,71.0,30.13,ESE,110,6.0,8.0,84,0.00,,,0.00,weatherlink.com 1.10,2013-05-18 05:31:00,
2013-05-18 01:46:00,76.5,72.0,30.12,SE,126,1.0,7.0,85,0.00,,,0.00,weatherlink.com 1.10,2013-05-18 05:46:00,
2013-05-18 02:01:00,76.3,72.0,30.12,ESE,121,3.0,5.0,87,0.00,,,0.00,weatherlink.com 1.10,2013-05-18 06:01:00,
2013-05-18 02:16:00,75.9,72.0,30.12,ESE,111,0.0,2.0,88,0.00,,,0.00,weatherlink.com 1.10,2013-05-18 06:16:00,
2013-05-18 02:31:00,75.8,72.0,30.12,SSE,150,2.0,5.0,89,0.00,,,0.00,weatherlink.com 1.10,2013-05-18 06:31:00,
2013-05-18 02:47:00,75.7,72.0,30.11,East,100,0.0,2.0,89,0.00,,,0.00,weatherlink.com 1.10,2013-05-18 06:47:00,
2013-05-18 03:02:00,75.4,72.0,30.11,WSW,252,0.0,0.0,89,0.00,,,0.00,weatherlink.com 1.10,2013-05-18 07:02:00,
2013-05-18 03:17:00,75.0,72.0,30.11,WSW,252,0.0,0.0,90,0.00,,,0.00,weatherlink.com 1.10,2013-05-18 07:17:00,
2013-05-18 03:32:00,74.8,72.0,30.11,WSW,251,0.0,0.0,91,0.00,,,0.00,weatherlink.com 1.10,2013-05-18 07:32:00,
2013-05-18 03:47:00,74.5,72.0,30.11,WNW,285,0.0,0.0,91,0.00,,,0.00,weatherlink.com 1.10,2013-05-18 07:47:00,
2013-05-18 04:02:00,74.2,72.0,30.11,WNW,285,0.0,0.0,92,0.00,,,0.00,weatherlink.com 1.10,2013-05-18 08:02:00,
2013-05-18 04:17:00,73.8,71.0,30.11,WNW,285,0.0,0.0,92,0.00,,,0.00,weatherlink.com 1.10,2013-05-18 08:17:00,
2013-05-18 04:32:00,73.6,72.0,30.11,WNW,285,0.0,0.0,93,0.00,,,0.00,weatherlink.com 1.10,2013-05-18 08:32:00,
2013-05-18 04:47:00,73.5,71.0,30.11,WNW,285,0.0,0.0,93,0.00,,,0.00,weatherlink.com 1.10,2013-05-18 08:47:00,
2013-05-18 05:02:00,73.2,71.0,30.11,North,4,0.0,1.0,94,0.00,,,0.00,weatherlink.com 1.10,2013-05-18 09:02:00,
2013-05-18 05:17:00,73.1,71.0,30.11,NNW,347,0.0,0.0,94,0.01,,,0.01,weatherlink.com 1.10,2013-05-18 09:17:00,
2013-05-18 05:32:00,72.6,71.0,30.12,NW,318,0.0,0.0,93,0.01,,,0.01,weatherlink.com 1.10,2013-05-18 09:32:00,
2013-05-18 05:47:00,72.2,70.0,30.12,NW,318,0.0,0.0,94,0.01,,,0.01,weatherlink.com 1.10,2013-05-18 09:47:00,
2013-05-18 06:02:00,72.7,71.0,30.12,NW,319,0.0,0.0,95,0.01,,,0.01,weatherlink.com 1.10,2013-05-18 10:02:00,
2013-05-18 06:17:00,72.6,71.0,30.12,NW,319,0.0,0.0,95,0.00,,,0.01,weatherlink.com 1.10,2013-05-18 10:17:00,
2013-05-18 06:32:00,72.6,71.0,30.13,NW,319,0.0,0.0,95,0.00,,,0.01,weatherlink.com 1.10,2013-05-18 10:32:00,
2013-05-18 06:47:00,72.6,71.0,30.13,NW,319,0.0,0.0,95,0.00,,,0.01,weatherlink.com 1.10,2013-05-18 10:47:00,
2013-05-18 07:02:00,72.8,71.0,30.14,NW,319,0.0,0.0,95,0.00,,,0.01,weatherlink.com 1.10,2013-05-18 11:02:00,
2013-05-18 07:17:00,74.0,73.0,30.14,NW,318,0.0,0.0,96,0.00,,,0.01,weatherlink.com 1.10,2013-05-18 11:17:00,
2013-05-18 07:32:00,76.0,75.0,30.14,West,276,0.0,0.0,95,0.00,,,0.01,weatherlink.com 1.10,2013-05-18 11:32:00,
2013-05-18 07:47:00,77.8,75.0,30.15,NNW,332,0.0,1.0,90,0.00,,,0.01,weatherlink.com 1.10,2013-05-18 11:47:00,
2013-05-18 08:02:00,78.6,74.0,30.15,East,81,0.0,0.0,86,0.00,,,0.01,weatherlink.com 1.10,2013-05-18 12:02:00,
2013-05-18 08:17:00,79.4,74.0,30.15,ENE,68,0.0,0.0,83,0.00,,,0.01,weatherlink.com 1.10,2013-05-18 12:17:00,
2013-05-18 08:32:00,79.9,74.0,30.16,ESE,115,4.0,5.0,82,0.00,,,0.01,weatherlink.com 1.10,2013-05-18 12:32:00,
2013-05-18 08:47:00,79.9,74.0,30.16,ESE,122,7.0,9.0,81,0.00,,,0.01,weatherlink.com 1.10,2013-05-18 12:47:00,
2013-05-18 09:02:00,80.5,73.0,30.16,ESE,107,8.0,9.0,79,0.00,,,0.01,weatherlink.com 1.10,2013-05-18 13:02:00,
2013-05-18 09:17:00,80.9,73.0,30.16,ESE,105,8.0,10.0,78,0.00,,,0.01,weatherlink.com 1.10,2013-05-18 13:17:00,
2013-05-18 09:32:00,81.0,74.0,30.16,ESE,121,4.0,9.0,80,0.00,,,0.01,weatherlink.com 1.10,2013-05-18 13:32:00,
2013-05-18 09:47:00,80.9,73.0,30.16,ESE,113,8.0,10.0,78,0.00,,,0.01,weatherlink.com 1.10,2013-05-18 13:47:00,
2013-05-18 10:02:00,81.3,73.0,30.16,SSE,148,6.0,12.0,75,0.00,,,0.01,weatherlink.com 1.10,2013-05-18 14:02:00,
2013-05-18 10:17:00,81.4,73.0,30.16,East,92,6.0,10.0,75,0.00,,,0.01,weatherlink.com 1.10,2013-05-18 14:17:00,
2013-05-18 10:32:00,81.0,72.0,30.16,East,79,10.0,10.0,75,0.00,,,0.01,weatherlink.com 1.10,2013-05-18 14:32:00,
2013-05-18 10:47:00,80.3,73.0,30.16,ESE,102,6.0,12.0,78,0.00,,,0.01,weatherlink.com 1.10,2013-05-18 14:47:00,
2013-05-18 11:03:00,80.5,75.0,30.16,ESE,106,13.0,14.0,82,0.00,,,0.01,weatherlink.com 1.10,2013-05-18 15:03:00,
2013-05-18 11:17:00,80.2,74.0,30.16,East,79,10.0,13.0,82,0.00,,,0.01,weatherlink.com 1.10,2013-05-18 15:17:00,
2013-05-18 11:32:00,79.6,74.0,30.17,ESE,106,6.0,11.0,82,0.00,,,0.01,weatherlink.com 1.10,2013-05-18 15:32:00,
2013-05-18 11:47:00,79.5,73.0,30.16,East,89,8.0,14.0,80,0.00,,,0.01,weatherlink.com 1.10,2013-05-18 15:47:00,
2013-05-18 12:02:00,80.2,74.0,30.16,East,86,10.0,14.0,81,0.00,,,0.01,weatherlink.com 1.10,2013-05-18 16:02:00,
2013-05-18 12:17:00,81.0,74.0,30.15,East,79,8.0,14.0,78,0.00,,,0.01,weatherlink.com 1.10,2013-05-18 16:17:00,
2013-05-18 12:32:00,81.5,74.0,30.15,ESE,117,10.0,15.0,77,0.00,,,0.01,weatherlink.com 1.10,2013-05-18 16:32:00,
2013-05-18 12:48:00,81.5,74.0,30.15,SE,129,9.0,15.0,78,0.00,,,0.01,weatherlink.com 1.10,2013-05-18 16:48:00,
2013-05-18 13:02:00,81.6,74.0,30.15,ESE,123,9.0,16.0,77,0.00,,,0.01,weatherlink.com 1.10,2013-05-18 17:02:00,
2013-05-18 13:17:00,81.3,72.0,30.14,SSE,148,6.0,15.0,74,0.00,,,0.01,weatherlink.com 1.10,2013-05-18 17:17:00,
2013-05-18 13:32:00,81.8,73.0,30.14,SE,130,9.0,14.0,75,0.00,,,0.01,weatherlink.com 1.10,2013-05-18 17:32:00,
2013-05-18 13:48:00,81.2,72.0,30.14,ESE,118,12.0,14.0,74,0.00,,,0.01,weatherlink.com 1.10,2013-05-18 17:48:00,
2013-05-18 14:02:00,81.2,73.0,30.13,ESE,105,7.0,14.0,75,0.00,,,0.01,weatherlink.com 1.10,2013-05-18 18:02:00,
2013-05-18 14:18:00,82.7,74.0,30.13,ESE,102,7.0,12.0,76,0.00,,,0.01,weatherlink.com 1.10,2013-05-18 18:18:00,
2013-05-18 14:33:00,81.9,73.0,30.13,ESE,106,8.0,16.0,75,0.00,,,0.01,weatherlink.com 1.10,2013-05-18 18:33:00,
2013-05-18 14:48:00,80.8,73.0,30.13,ESE,110,11.0,15.0,76,0.00,,,0.01,weatherlink.com 1.10,2013-05-18 18:48:00,
2013-05-18 15:03:00,80.1,73.0,30.12,East,86,10.0,12.0,78,0.00,,,0.01,weatherlink.com 1.10,2013-05-18 19:03:00,
2013-05-18 15:18:00,79.8,72.0,30.11,ESE,110,11.0,13.0,78,0.00,,,0.01,weatherlink.com 1.10,2013-05-18 19:18:00,
2013-05-18 15:33:00,80.5,73.0,30.11,SE,127,8.0,11.0,78,0.00,,,0.01,weatherlink.com 1.10,2013-05-18 19:33:00,
2013-05-18 15:48:00,81.3,73.0,30.11,East,101,7.0,15.0,75,0.00,,,0.01,weatherlink.com 1.10,2013-05-18 19:48:00,
2013-05-18 16:03:00,81.5,73.0,30.10,East,91,15.0,18.0,75,0.00,,,0.01,weatherlink.com 1.10,2013-05-18 20:03:00,
2013-05-18 16:18:00,80.5,73.0,30.10,ESE,110,11.0,18.0,77,0.00,,,0.01,weatherlink.com 1.10,2013-05-18 20:18:00,
2013-05-18 16:33:00,80.7,73.0,30.09,East,81,11.0,14.0,77,0.00,,,0.01,weatherlink.com 1.10,2013-05-18 20:33:00,
2013-05-18 16:48:00,80.3,73.0,30.10,East,100,11.0,15.0,77,0.00,,,0.01,weatherlink.com 1.10,2013-05-18 20:48:00,
2013-05-18 17:03:00,79.8,72.0,30.10,ESE,109,11.0,16.0,78,0.00,,,0.01,weatherlink.com 1.10,2013-05-18 21:03:00,
2013-05-18 17:18:00,79.6,72.0,30.10,SE,139,6.0,12.0,78,0.00,,,0.01,weatherlink.com 1.10,2013-05-18 21:18:00,
2013-05-18 17:33:00,79.6,72.0,30.10,SSE,153,6.0,11.0,78,0.00,,,0.01,weatherlink.com 1.10,2013-05-18 21:33:00,
2013-05-18 17:48:00,79.5,72.0,30.11,ESE,120,5.0,11.0,78,0.00,,,0.01,weatherlink.com 1.10,2013-05-18 21:48:00,
2013-05-18 18:03:00,79.5,72.0,30.11,ESE,107,9.0,10.0,78,0.00,,,0.01,weatherlink.com 1.10,2013-05-18 22:03:00,
2013-05-18 18:18:00,80.1,72.0,30.10,East,98,11.0,14.0,77,0.00,,,0.01,weatherlink.com 1.10,2013-05-18 22:18:00,
2013-05-18 18:33:00,79.7,72.0,30.11,ESE,107,7.0,11.0,77,0.00,,,0.01,weatherlink.com 1.10,2013-05-18 22:33:00,
2013-05-18 18:48:00,79.4,72.0,30.10,SE,141,6.0,11.0,78,0.00,,,0.01,weatherlink.com 1.10,2013-05-18 22:48:00,
2013-05-18 19:03:00,79.4,72.0,30.10,SE,124,6.0,11.0,77,0.00,,,0.01,weatherlink.com 1.10,2013-05-18 23:03:00,
2013-05-18 19:18:00,79.2,72.0,30.10,East,90,7.0,9.0,78,0.00,,,0.01,weatherlink.com 1.10,2013-05-18 23:18:00,
2013-05-18 19:33:00,79.0,72.0,30.11,SE,125,9.0,11.0,78,0.00,,,0.01,weatherlink.com 1.10,2013-05-18 23:33:00,
2013-05-18 19:48:00,78.7,72.0,30.12,East,99,11.0,11.0,79,0.00,,,0.01,weatherlink.com 1.10,2013-05-18 23:48:00,
2013-05-18 20:03:00,78.4,71.0,30.12,East,86,7.0,12.0,79,0.01,,,0.02,weatherlink.com 1.10,2013-05-19 00:03:00,
2013-05-18 20:18:00,78.2,71.0,30.11,ESE,113,5.0,10.0,79,0.02,,,0.03,weatherlink.com 1.10,2013-05-19 00:18:00,
2013-05-18 20:33:00,78.1,72.0,30.12,ESE,119,7.0,11.0,80,0.02,,,0.03,weatherlink.com 1.10,2013-05-19 00:33:00,
2013-05-18 20:48:00,77.9,71.0,30.12,East,99,5.0,9.0,79,0.02,,,0.03,weatherlink.com 1.10,2013-05-19 00:48:00,
2013-05-18 21:03:00,77.9,71.0,30.12,ESE,118,5.0,11.0,79,0.01,,,0.03,weatherlink.com 1.10,2013-05-19 01:03:00,
2013-05-18 21:18:00,77.7,71.0,30.13,SE,126,6.0,10.0,79,0.00,,,0.03,weatherlink.com 1.10,2013-05-19 01:18:00,
2013-05-18 21:33:00,77.7,71.0,30.14,ESE,106,6.0,10.0,80,0.00,,,0.03,weatherlink.com 1.10,2013-05-19 01:33:00,
2013-05-18 21:48:00,77.6,71.0,30.14,ESE,113,5.0,7.0,81,0.00,,,0.03,weatherlink.com 1.10,2013-05-19 01:48:00,
2013-05-18 22:03:00,77.8,71.0,30.14,ESE,119,6.0,11.0,80,0.00,,,0.03,weatherlink.com 1.10,2013-05-19 02:03:00,
2013-05-18 22:18:00,77.9,71.0,30.14,ESE,113,5.0,11.0,80,0.00,,,0.03,weatherlink.com 1.10,2013-05-19 02:18:00,
2013-05-18 22:33:00,77.8,71.0,30.14,ESE,113,4.0,10.0,79,0.00,,,0.03,weatherlink.com 1.10,2013-05-19 02:33:00,
2013-05-18 22:48:00,77.7,71.0,30.14,ESE,119,5.0,10.0,79,0.00,,,0.03,weatherlink.com 1.10,2013-05-19 02:48:00,
2013-05-18 23:03:00,77.7,71.0,30.14,ESE,119,5.0,10.0,79,0.00,,,0.03,weatherlink.com 1.10,2013-05-19 03:03:00,
2013-05-18 23:18:00,77.8,71.0,30.14,ESE,111,4.0,8.0,79,0.00,,,0.03,weatherlink.com 1.10,2013-05-19 03:18:00,
2013-05-18 23:33:00,77.8,71.0,30.14,ESE,113,7.0,10.0,79,0.00,,,0.03,weatherlink.com 1.10,2013-05-19 03:33:00,
2013-05-18 23:48:00,77.7,70.0,30.14,ESE,108,6.0,7.0,78,0.00,,,0.03,weatherlink.com 1.10,2013-05-19 03:48:00,